Time;durP1;ratioP1;P1;durP2;ratioP2;P2;SDS_P1;SDS_P2;PMS_P1;PMS_P2;Temp;Humidity;BMP_temperature;BMP_pressure;BME280_temperature;BME280_humidity;BME280_pressure;Samples;Min_cycle;Max_cycle;Signal;HPM_P1;HPM_P2
2021/11/24 00:02:00;;;;;;;19.60;12.05;;;;;;;4.08;87.52;101535.06;5021075;28;20442;-54
2021/11/24 00:04:27;;;;;;;19.08;11.48;;;;;;;4.07;88.07;101533.31;5023698;28;20095;-55
2021/11/24 00:06:53;;;;;;;18.83;11.30;;;;;;;4.05;88.19;101529.81;5015582;28;20531;-53
2021/11/24 00:09:20;;;;;;;19.88;11.45;;;;;;;4.08;88.60;101531.56;5022835;28;20072;-52
2021/11/24 00:11:47;;;;;;;19.90;11.55;;;;;;;4.09;89.07;101528.06;5023313;28;20042;-53
2021/11/24 00:14:14;;;;;;;18.73;11.77;;;;;;;4.09;88.88;101522.81;5025759;28;20144;-52
2021/11/24 00:16:41;;;;;;;21.73;10.43;;;;;;;4.10;88.73;101522.78;5011892;28;20050;-52
2021/11/24 00:19:07;;;;;;;21.23;11.68;;;;;;;4.18;88.97;101520.16;5017505;28;20400;-51
2021/11/24 00:21:34;;;;;;;14.52;10.18;;;;;;;4.16;88.71;101511.44;5025187;28;20052;-53
2021/11/24 00:24:00;;;;;;;16.85;10.15;;;;;;;4.04;88.14;101493.13;5021143;28;20111;-54
2021/11/24 00:26:27;;;;;;;12.50;9.35;;;;;;;4.10;88.73;101508.81;5018548;28;20049;-52
2021/11/24 00:28:53;;;;;;;16.33;9.63;;;;;;;4.13;89.10;101512.31;5025585;28;20054;-53
2021/11/24 00:31:20;;;;;;;15.85;9.75;;;;;;;4.10;88.66;101508.81;5027055;28;20375;-54
2021/11/24 00:33:46;;;;;;;14.05;9.13;;;;;;;4.12;88.74;101505.31;5028467;28;20133;-54
2021/11/24 00:36:13;;;;;;;15.07;9.55;;;;;;;4.02;88.96;101495.75;5014304;28;20046;-53
2021/11/24 00:38:39;;;;;;;16.25;9.93;;;;;;;4.13;88.42;101508.81;5026696;28;20045;-51
2021/11/24 00:41:06;;;;;;;17.65;9.70;;;;;;;4.09;87.97;101491.38;5026959;28;20407;-53
2021/11/24 00:43:33;;;;;;;13.77;9.57;;;;;;;4.16;88.30;101495.69;5023518;28;20068;-52
2021/11/24 00:46:00;;;;;;;13.85;9.82;;;;;;;4.25;87.63;101507.94;5016488;28;20053;-52
2021/11/24 00:48:26;;;;;;;16.63;9.98;;;;;;;4.25;88.14;101506.13;5023707;28;20049;-52
2021/11/24 00:50:53;;;;;;;14.85;9.63;;;;;;;4.30;87.18;101511.38;5025184;28;20056;-53
2021/11/24 00:53:19;;;;;;;13.18;8.80;;;;;;;4.35;87.11;101502.63;5021600;28;20052;-53
2021/11/24 00:55:46;;;;;;;15.90;9.48;;;;;;;4.35;87.27;101505.25;5015781;28;20068;-53
2021/11/24 00:58:12;;;;;;;17.77;9.43;;;;;;;4.34;87.02;101506.13;5022668;28;20061;-52
2021/11/24 01:00:39;;;;;;;12.70;8.82;;;;;;;4.35;86.77;101504.38;5023829;28;20052;-55
2021/11/24 01:03:06;;;;;;;15.98;9.60;;;;;;;4.34;86.08;101498.25;5019252;28;20057;-55
2021/11/24 01:05:32;;;;;;;14.20;8.98;;;;;;;4.35;86.02;101496.50;5009408;28;20045;-56
2021/11/24 01:07:59;;;;;;;15.25;8.27;;;;;;;4.35;86.59;101496.50;5021005;28;20060;-54
2021/11/24 01:10:26;;;;;;;15.70;8.40;;;;;;;4.37;86.11;101494.75;5011970;28;20053;-52
2021/11/24 01:12:53;;;;;;;14.27;8.30;;;;;;;4.40;86.49;101498.25;5020817;28;20044;-53
2021/11/24 01:15:19;;;;;;;15.10;8.73;;;;;;;4.44;85.26;101497.34;5019180;28;20518;-52
2021/11/24 01:17:46;;;;;;;15.52;8.90;;;;;;;4.48;85.37;101492.97;5012866;28;20049;-52
2021/11/24 01:20:13;;;;;;;13.65;8.05;;;;;;;4.50;84.59;101491.19;5023848;28;20045;-53
2021/11/24 01:22:40;;;;;;;12.27;8.02;;;;;;;4.51;84.93;101491.19;5020089;28;20133;-51
2021/11/24 01:25:07;;;;;;;13.68;8.07;;;;;;;4.56;83.65;101485.94;5017528;28;20196;-53
2021/11/24 01:27:34;;;;;;;12.70;8.65;;;;;;;4.61;83.66;101485.88;5016549;28;20400;-53
2021/11/24 01:30:00;;;;;;;14.32;8.68;;;;;;;4.65;83.28;101488.50;5023061;28;20041;-54
2021/11/24 01:32:28;;;;;;;15.32;8.52;;;;;;;4.66;83.17;101486.75;5027263;28;20054;-52
2021/11/24 01:34:54;;;;;;;13.48;8.40;;;;;;;4.63;82.93;101487.63;5024637;28;20049;-52
2021/11/24 01:37:21;;;;;;;15.60;8.50;;;;;;;4.60;82.87;101487.63;5024336;28;20049;-53
2021/11/24 01:39:47;;;;;;;19.17;8.73;;;;;;;4.54;83.38;101478.06;5020446;28;20064;-52
2021/11/24 01:42:14;;;;;;;12.45;8.45;;;;;;;4.61;83.34;101483.28;5025827;28;20049;-53
2021/11/24 01:44:40;;;;;;;14.68;8.07;;;;;;;4.61;83.52;101484.13;5020481;28;20376;-53
2021/11/24 01:47:07;;;;;;;15.43;8.63;;;;;;;4.60;83.34;101482.41;5012840;28;20045;-50
2021/11/24 01:49:34;;;;;;;11.15;8.85;;;;;;;4.62;84.45;101487.63;5023719;28;21381;-54
2021/11/24 01:52:01;;;;;;;15.93;9.52;;;;;;;4.61;84.50;101478.03;5027812;28;20113;-52
2021/11/24 01:54:29;;;;;;;13.88;9.18;;;;;;;4.61;84.67;101476.28;5027969;28;20754;-54
2021/11/24 01:56:57;;;;;;;16.02;9.25;;;;;;;4.62;84.64;101462.28;5016188;28;20041;-54
2021/11/24 01:59:24;;;;;;;14.18;9.13;;;;;;;4.63;84.10;101465.78;5028709;28;20048;-54
2021/11/24 02:01:51;;;;;;;20.67;9.75;;;;;;;4.66;84.35;101465.75;5022540;28;20129;-53
2021/11/24 02:04:19;;;;;;;15.35;8.52;;;;;;;4.67;84.34;101460.50;5026052;28;20077;-53
2021/11/24 02:06:46;;;;;;;13.07;8.63;;;;;;;4.52;84.50;101437.84;5020452;28;20049;-56
2021/11/24 02:09:13;;;;;;;13.77;8.68;;;;;;;4.55;84.50;101458.84;5025151;28;20060;-60
2021/11/24 02:11:42;;;;;;;15.93;9.32;;;;;;;4.55;85.25;101458.84;5024151;28;20041;-56
2021/11/24 02:14:10;;;;;;;13.65;8.77;;;;;;;4.48;85.08;101441.38;5019523;28;20064;-55
2021/11/24 02:16:45;;;;;;;14.15;8.85;;;;;;;4.65;85.09;101451.78;5013441;28;20053;-52
2021/11/24 02:19:11;;;;;;;18.38;9.65;;;;;;;4.70;84.37;101442.13;5026070;28;20669;-54
2021/11/24 02:21:38;;;;;;;16.30;9.55;;;;;;;4.69;85.12;101440.38;5027673;28;20629;-57
2021/11/24 02:24:05;;;;;;;17.10;9.57;;;;;;;4.69;85.11;101434.25;5023646;28;20045;-54
2021/11/24 02:26:31;;;;;;;15.95;9.43;;;;;;;4.71;85.11;101432.50;5015317;28;20053;-54
2021/11/24 02:28:58;;;;;;;17.17;10.18;;;;;;;4.71;84.77;101432.50;5016111;28;20064;-53
2021/11/24 02:31:26;;;;;;;18.30;9.63;;;;;;;4.70;84.85;101434.25;5025373;28;20057;-52
2021/11/24 02:33:56;;;;;;;15.77;9.60;;;;;;;4.70;85.18;101433.38;5022976;28;20044;-53
2021/11/24 02:36:24;;;;;;;13.75;8.93;;;;;;;4.69;85.56;101432.50;5017514;28;20478;-52
2021/11/24 02:38:50;;;;;;;15.73;9.70;;;;;;;4.58;85.58;101418.56;5021636;28;20052;-54
2021/11/24 02:41:17;;;;;;;16.98;8.75;;;;;;;4.64;85.50;101421.16;5025047;28;20045;-54
2021/11/24 02:43:44;;;;;;;17.80;9.80;;;;;;;4.65;85.90;101427.28;5019572;28;20045;-53
2021/11/24 02:46:11;;;;;;;16.23;9.27;;;;;;;4.59;85.76;101423.81;5016372;28;20049;-53
2021/11/24 02:48:38;;;;;;;16.85;9.43;;;;;;;4.62;86.69;101427.28;5017146;28;20099;-53
2021/11/24 02:51:05;;;;;;;13.65;9.32;;;;;;;4.59;85.92;101410.69;5022918;28;20098;-52
2021/11/24 02:53:34;;;;;;;16.73;9.60;;;;;;;4.60;85.99;101408.94;5021138;28;20510;-53
2021/11/24 02:56:01;;;;;;;14.60;9.10;;;;;;;4.67;85.82;101415.91;5017764;28;20053;-54
2021/11/24 02:58:28;;;;;;;16.45;9.80;;;;;;;4.69;85.95;101418.53;5015949;28;20089;-51
2021/11/24 03:00:58;;;;;;;12.98;9.35;;;;;;;4.65;86.16;101416.78;5022959;28;20041;-52
2021/11/24 03:03:25;;;;;;;17.27;10.30;;;;;;;4.64;86.25;101405.44;5018489;28;20073;-52
2021/11/24 03:05:51;;;;;;;18.90;10.52;;;;;;;4.66;86.23;101406.28;5018772;28;20050;-53
2021/11/24 03:08:18;;;;;;;14.32;9.77;;;;;;;4.64;86.72;101394.94;5013895;28;20094;-54
2021/11/24 03:10:45;;;;;;;15.75;10.02;;;;;;;4.66;86.36;101402.78;5021511;28;20052;-52
2021/11/24 03:13:12;;;;;;;15.00;9.68;;;;;;;4.61;86.77;101396.69;5018483;28;20602;-53
2021/11/24 03:15:38;;;;;;;20.13;9.85;;;;;;;4.62;86.88;101401.94;5021026;28;20046;-54
2021/11/24 03:18:05;;;;;;;18.60;10.40;;;;;;;4.67;86.26;101404.53;5015057;28;20088;-53
2021/11/24 03:20:31;;;;;;;16.17;9.48;;;;;;;4.68;86.70;101399.28;5023213;28;20045;-53
2021/11/24 03:22:59;;;;;;;14.38;9.85;;;;;;;4.68;86.80;101393.16;5012458;28;20041;-54
2021/11/24 03:25:26;;;;;;;15.50;9.90;;;;;;;4.68;86.62;101390.53;5020785;28;20442;-53
2021/11/24 03:27:53;;;;;;;15.73;9.48;;;;;;;4.55;86.75;101369.66;5011723;28;20061;-54
2021/11/24 03:30:22;;;;;;;15.88;9.77;;;;;;;4.69;86.54;101384.41;5020277;28;20045;-51
2021/11/24 03:32:50;;;;;;;16.33;9.18;;;;;;;4.68;86.76;101380.06;5019484;28;20049;-53
2021/11/24 03:35:18;;;;;;;16.35;9.27;;;;;;;4.65;87.04;101374.81;5023109;28;20046;-51
2021/11/24 03:37:44;;;;;;;19.05;9.98;;;;;;;4.65;86.76;101377.44;5015386;28;20053;-52
2021/11/24 03:40:13;;;;;;;17.58;9.27;;;;;;;4.66;87.04;101373.94;5025903;28;20124;-55
2021/11/24 03:42:44;;;;;;;15.55;9.25;;;;;;;4.68;86.45;101365.19;5025553;28;20048;-53
2021/11/24 03:45:11;;;;;;;14.05;9.23;;;;;;;4.65;86.87;101364.31;5022603;28;20144;-51
2021/11/24 03:47:38;;;;;;;13.23;8.90;;;;;;;4.63;87.02;101360.84;5017348;28;20136;-53
2021/11/24 03:50:06;;;;;;;14.27;9.10;;;;;;;4.63;87.04;101359.09;5024285;28;20061;-52
2021/11/24 03:52:33;;;;;;;13.68;8.40;;;;;;;4.62;87.21;101357.34;5024220;28;20060;-53
2021/11/24 03:54:59;;;;;;;14.95;9.30;;;;;;;4.58;87.56;101353.00;5024671;28;20494;-53
2021/11/24 03:57:26;;;;;;;15.65;9.40;;;;;;;4.58;87.61;101358.22;5014815;28;20495;-53
2021/11/24 03:59:52;;;;;;;13.98;8.85;;;;;;;4.56;87.52;101358.25;5023292;28;20049;-53
2021/11/24 04:02:19;;;;;;;14.32;8.88;;;;;;;4.56;87.81;101355.63;5025881;28;20045;-56
2021/11/24 04:04:45;;;;;;;17.45;9.38;;;;;;;4.57;87.58;101352.13;5024699;28;20050;-52
2021/11/24 04:07:12;;;;;;;18.08;9.15;;;;;;;4.57;87.45;101349.50;5019612;28;20057;-54
2021/11/24 04:09:39;;;;;;;13.90;8.43;;;;;;;4.48;87.31;101333.84;5024759;28;20048;-53
2021/11/24 04:12:06;;;;;;;18.08;9.30;;;;;;;4.53;87.38;101350.41;5025736;28;20050;-53
2021/11/24 04:14:33;;;;;;;14.18;8.95;;;;;;;4.53;88.08;101355.66;5021859;28;20647;-53
2021/11/24 04:17:00;;;;;;;16.30;8.93;;;;;;;4.53;87.93;101352.19;5017819;28;20706;-52
2021/11/24 04:19:26;;;;;;;15.35;9.15;;;;;;;4.52;88.38;101342.56;5019601;28;20041;-52
2021/11/24 04:21:53;;;;;;;15.13;9.13;;;;;;;4.52;87.80;101343.44;5025464;28;20033;-52
2021/11/24 04:24:19;;;;;;;16.00;9.23;;;;;;;4.52;87.89;101343.44;5018855;28;20057;-54
2021/11/24 04:26:46;;;;;;;17.65;9.77;;;;;;;4.52;88.12;101343.44;5018690;28;20046;-54
2021/11/24 04:29:12;;;;;;;13.18;8.65;;;;;;;4.51;88.11;101340.81;5021737;28;20498;-52
2021/11/24 04:31:39;;;;;;;15.05;9.32;;;;;;;4.44;88.45;101345.22;5026162;28;20042;-53
2021/11/24 04:34:05;;;;;;;15.45;9.18;;;;;;;4.34;89.02;101321.69;5025229;28;20055;-56
2021/11/24 04:36:40;;;;;;;14.52;8.98;;;;;;;4.30;88.99;101312.97;5023030;28;20038;-52
2021/11/24 04:39:06;;;;;;;15.60;9.80;;;;;;;4.41;89.27;101345.25;5026187;28;20041;-54
2021/11/24 04:41:33;;;;;;;14.52;8.95;;;;;;;4.39;89.37;101331.28;5037033;28;20048;-52
2021/11/24 04:44:00;;;;;;;14.88;9.32;;;;;;;4.39;89.48;101333.91;5029673;28;20041;-53
2021/11/24 04:46:26;;;;;;;16.80;8.90;;;;;;;4.38;89.30;101328.69;5027480;28;20046;-53
2021/11/24 04:48:53;;;;;;;15.30;9.32;;;;;;;4.41;89.31;101328.63;5011247;28;20094;-54
2021/11/24 04:51:19;;;;;;;18.40;9.68;;;;;;;4.41;89.27;101331.25;5024705;28;20045;-53
2021/11/24 04:53:46;;;;;;;15.82;9.30;;;;;;;4.40;89.10;101327.78;5022237;28;20045;-53
2021/11/24 04:56:13;;;;;;;18.00;9.63;;;;;;;4.39;88.95;101327.78;5022658;28;21000;-54
2021/11/24 04:59:02;;;;;;;14.35;9.38;;;;;;;4.43;88.97;101327.75;5016764;28;20042;-53
2021/11/24 05:01:27;;;;;;;15.20;9.65;;;;;;;4.42;88.74;101323.38;5024651;28;20402;-54
2021/11/24 05:03:54;;;;;;;15.25;9.63;;;;;;;4.45;88.47;101323.38;5023039;28;20048;-54
2021/11/24 05:06:22;;;;;;;15.68;9.48;;;;;;;4.42;89.18;101323.38;5022306;28;20137;-53
2021/11/24 05:08:49;;;;;;;20.00;10.32;;;;;;;4.43;89.71;101319.00;5012433;28;20052;-51
2021/11/24 05:11:18;;;;;;;16.10;10.30;;;;;;;4.43;89.55;101317.25;5023274;28;20081;-51
2021/11/24 05:13:59;;;;;;;15.80;9.93;;;;;;;4.44;89.88;101319.00;5020967;28;20427;-54
2021/11/24 05:16:30;;;;;;;;;;;;;;;4.50;89.51;101318.09;5021479;28;20057;-52
2021/11/24 05:18:58;;;;;;;15.60;10.27;;;;;;;4.48;89.11;101315.47;5021509;28;19936;-53
2021/11/24 05:23:52;;;;;;;15.10;10.45;;;;;;;4.50;89.61;101308.47;5025411;28;20053;-54
2021/11/24 05:26:19;;;;;;;19.40;11.55;;;;;;;4.54;88.99;101315.44;5021033;28;20056;-52
2021/11/24 05:28:46;;;;;;;19.08;11.23;;;;;;;4.53;89.52;101318.06;5011840;28;20446;-52
2021/11/24 05:31:14;;;;;;;17.92;11.82;;;;;;;4.49;89.25;101322.47;5024985;28;20046;-52
2021/11/24 05:33:42;;;;;;;18.85;11.70;;;;;;;4.47;89.39;101324.22;5027065;28;20064;-52
2021/11/24 05:36:10;;;;;;;16.52;10.88;;;;;;;4.44;89.47;101324.25;5022990;28;20061;-52
2021/11/24 05:38:38;;;;;;;18.63;10.27;;;;;;;4.47;89.62;101316.34;5012793;28;20045;-53
2021/11/24 05:41:05;;;;;;;16.85;10.95;;;;;;;4.47;90.24;101313.72;5021891;28;20049;-54
2021/11/24 05:43:33;;;;;;;16.90;10.38;;;;;;;4.47;89.78;101313.72;5024889;28;20474;-53
2021/11/24 05:46:17;;;;;;;16.35;10.20;;;;;;;4.46;89.77;101300.63;5023738;28;20069;-53
2021/11/24 05:48:45;;;;;;;16.58;10.02;;;;;;;4.46;89.68;101309.38;5017591;28;20044;-51
2021/11/24 05:51:12;;;;;;;17.77;10.95;;;;;;;4.47;89.39;101305.00;5018252;28;20045;-52
2021/11/24 05:53:39;;;;;;;22.05;10.05;;;;;;;4.34;89.03;101293.72;5023063;28;20104;-52
2021/11/24 05:56:06;;;;;;;15.45;10.38;;;;;;;4.45;89.76;101305.00;5019621;28;20068;-58
2021/11/24 05:58:32;;;;;;;16.80;10.60;;;;;;;4.49;89.98;101309.34;5010045;28;20049;-53
2021/11/24 06:00:59;;;;;;;16.45;10.63;;;;;;;4.48;89.11;101307.59;5017429;28;20042;-52
2021/11/24 06:03:26;;;;;;;20.88;11.18;;;;;;;4.47;89.49;101298.00;5025548;28;20049;-53
2021/11/24 06:05:53;;;;;;;17.85;10.60;;;;;;;4.50;89.33;101291.88;5022066;28;20068;-53
2021/11/24 06:08:19;;;;;;;14.20;9.98;;;;;;;4.47;89.75;101291.88;5014926;28;20392;-52
2021/11/24 06:10:46;;;;;;;15.82;10.00;;;;;;;4.49;89.88;101298.00;5019533;28;20057;-53
2021/11/24 06:13:13;;;;;;;16.08;9.82;;;;;;;4.49;90.06;101298.00;5019474;28;20048;-54
2021/11/24 06:15:39;;;;;;;16.20;10.30;;;;;;;4.50;89.90;101289.25;5019129;28;20041;-52
2021/11/24 06:18:07;;;;;;;18.38;10.23;;;;;;;4.50;90.11;101282.25;5014997;28;20050;-54
2021/11/24 06:20:33;;;;;;;15.25;9.90;;;;;;;4.48;90.03;101289.25;5025322;28;20048;-53
2021/11/24 06:23:00;;;;;;;21.40;10.68;;;;;;;4.53;90.32;101287.47;5023820;28;20466;-52
2021/11/24 06:25:26;;;;;;;19.63;10.13;;;;;;;4.59;89.74;101284.78;5022863;28;20041;-52
2021/11/24 06:27:53;;;;;;;15.48;10.10;;;;;;;4.61;89.91;101290.00;5012280;28;20049;-54
2021/11/24 06:30:19;;;;;;;18.08;10.13;;;;;;;4.61;89.88;101287.41;5017698;28;20515;-51
2021/11/24 06:32:46;;;;;;;17.30;9.75;;;;;;;4.61;89.32;101282.16;5022856;28;20049;-52
2021/11/24 06:35:14;;;;;;;16.75;10.38;;;;;;;4.55;89.99;101282.22;5019658;28;20042;-52
2021/11/24 06:37:40;;;;;;;18.60;10.05;;;;;;;4.53;89.72;101286.59;5014130;28;20117;-53
2021/11/24 06:40:09;;;;;;;20.55;10.90;;;;;;;4.54;90.00;101293.59;5019567;28;20049;-51
2021/11/24 06:42:36;;;;;;;17.38;10.02;;;;;;;4.46;90.65;101275.28;5022437;28;20100;-53
2021/11/24 06:45:03;;;;;;;19.25;10.85;;;;;;;4.58;90.65;101287.41;5012480;28;20511;-53
2021/11/24 06:47:30;;;;;;;16.63;10.02;;;;;;;4.57;89.87;101291.78;5007906;28;20526;-52
2021/11/24 06:49:56;;;;;;;17.83;10.30;;;;;;;4.64;90.16;101297.88;5013495;28;20053;-51
2021/11/24 06:52:23;;;;;;;18.27;10.60;;;;;;;4.55;90.01;101271.72;5019172;28;20439;-53
2021/11/24 06:54:49;;;;;;;21.23;11.27;;;;;;;4.75;88.93;101297.75;5010310;28;20058;-51
2021/11/24 06:57:16;;;;;;;17.83;10.32;;;;;;;4.76;89.31;101295.13;5014833;28;20514;-55
2021/11/24 06:59:43;;;;;;;20.02;10.15;;;;;;;4.76;88.89;101295.13;5008794;28;20486;-53
2021/11/24 07:02:09;;;;;;;17.30;10.13;;;;;;;4.65;89.26;101275.13;5018629;28;20045;-53
2021/11/24 07:04:40;;;;;;;18.33;10.25;;;;;;;4.77;89.30;101285.50;5019070;28;20068;-52
2021/11/24 07:07:06;;;;;;;16.45;10.18;;;;;;;4.76;89.73;101292.50;5004633;28;20046;-52
2021/11/24 07:09:33;;;;;;;17.38;10.82;;;;;;;4.77;89.40;101293.38;5011486;28;20046;-55
2021/11/24 07:12:00;;;;;;;19.42;10.50;;;;;;;4.80;89.35;101295.97;5014740;28;20079;-53
2021/11/24 07:14:26;;;;;;;17.50;10.57;;;;;;;4.83;89.17;101288.97;5019548;28;20041;-51
2021/11/24 07:16:53;;;;;;;18.85;11.15;;;;;;;4.80;88.99;101288.09;5024292;28;20071;-54
2021/11/24 07:19:22;;;;;;;22.90;11.88;;;;;;;4.78;88.58;101292.50;5013605;28;20045;-53
2021/11/24 07:21:49;;;;;;;16.30;10.75;;;;;;;4.77;88.74;101285.50;5020055;28;20065;-53
2021/11/24 07:24:17;;;;;;;18.33;10.88;;;;;;;4.74;88.63;101293.41;5013186;28;20404;-52
2021/11/24 07:26:44;;;;;;;15.40;10.15;;;;;;;4.74;88.85;101296.88;5024076;28;20049;-52
2021/11/24 07:29:12;;;;;;;18.58;11.27;;;;;;;4.79;89.39;101291.63;5011470;28;20514;-51
2021/11/24 07:31:38;;;;;;;20.20;11.07;;;;;;;4.81;88.79;101292.47;5028676;28;20478;-55
2021/11/24 07:34:06;;;;;;;18.55;10.68;;;;;;;4.82;88.72;101283.72;5025311;28;20563;-52
2021/11/24 07:36:33;;;;;;;17.35;10.80;;;;;;;4.83;88.80;101291.59;5024648;28;20060;-54
2021/11/24 07:38:59;;;;;;;15.82;10.73;;;;;;;4.86;88.50;101285.44;5015960;28;20072;-55
2021/11/24 07:41:26;;;;;;;18.23;10.38;;;;;;;4.87;89.00;101288.06;5027086;28;20063;-52
2021/11/24 07:43:52;;;;;;;17.40;10.13;;;;;;;4.87;88.29;101292.44;5017102;28;20046;-52
2021/11/24 07:46:19;;;;;;;16.42;10.52;;;;;;;4.86;88.52;101288.94;5024712;28;20072;-55
2021/11/24 07:48:46;;;;;;;18.25;10.82;;;;;;;4.88;88.33;101288.88;5012921;28;20102;-57
2021/11/24 07:51:17;;;;;;;17.15;10.52;;;;;;;4.97;87.91;101283.56;5025592;28;20045;-60
2021/11/24 07:53:47;;;;;;;16.65;10.30;;;;;;;4.94;87.52;101263.47;5024519;28;20041;-54
2021/11/24 07:56:13;;;;;;;16.15;10.35;;;;;;;5.02;86.69;101279.16;5026608;28;20053;-53
2021/11/24 07:58:43;;;;;;;18.92;11.15;;;;;;;4.97;87.15;101278.31;5020181;28;20057;-54
2021/11/24 08:01:11;;;;;;;16.27;10.88;;;;;;;4.96;87.68;101283.59;5017669;28;20053;-52
2021/11/24 08:03:39;;;;;;;19.08;10.57;;;;;;;5.02;87.71;101273.03;5025131;28;20049;-53
2021/11/24 08:06:06;;;;;;;17.83;11.02;;;;;;;5.06;87.87;101283.47;5023207;28;20052;-53
2021/11/24 08:08:32;;;;;;;16.70;11.48;;;;;;;5.12;86.70;101272.03;5011249;28;20053;-54
2021/11/24 08:10:59;;;;;;;20.08;10.85;;;;;;;5.16;86.70;101264.13;5021181;28;20107;-53
2021/11/24 08:13:26;;;;;;;19.33;10.60;;;;;;;5.19;86.47;101264.09;5020705;28;20057;-53
2021/11/24 08:15:53;;;;;;;17.58;10.85;;;;;;;5.24;86.59;101266.66;5021955;28;20411;-52
2021/11/24 08:18:19;;;;;;;18.88;11.02;;;;;;;5.36;87.09;101263.00;5020567;28;20410;-53
2021/11/24 08:20:46;;;;;;;16.60;10.60;;;;;;;5.38;84.34;101255.97;5021393;28;20049;-53
2021/11/24 08:23:14;;;;;;;17.23;10.48;;;;;;;5.35;83.71;101254.28;5022991;28;20125;-55
2021/11/24 08:25:40;;;;;;;17.70;10.73;;;;;;;5.21;84.99;101248.28;5024940;28;20052;-54
2021/11/24 08:28:07;;;;;;;16.85;10.88;;;;;;;5.19;85.52;101255.34;5013880;28;20050;-55
2021/11/24 08:30:34;;;;;;;16.80;10.90;;;;;;;5.19;85.66;101245.72;5018510;28;20060;-54
2021/11/24 08:33:00;;;;;;;20.50;10.43;;;;;;;5.25;86.20;101250.88;5023835;28;20041;-53
2021/11/24 08:35:27;;;;;;;16.88;11.05;;;;;;;5.25;84.78;101247.38;5011744;28;20057;-52
2021/11/24 08:37:53;;;;;;;19.58;10.80;;;;;;;5.31;84.11;101254.34;5006525;28;20047;-51
2021/11/24 08:40:20;;;;;;;17.80;10.05;;;;;;;5.38;87.46;101248.97;5016171;28;20060;-52
2021/11/24 08:42:47;;;;;;;16.02;10.75;;;;;;;5.45;85.40;101249.78;5023223;28;20093;-52
2021/11/24 08:45:13;;;;;;;18.50;10.55;;;;;;;5.39;84.63;101245.47;5021248;28;20045;-54
2021/11/24 08:47:41;;;;;;;17.75;10.73;;;;;;;5.40;84.64;101246.31;5019673;28;20045;-55
2021/11/24 08:50:10;;;;;;;18.25;10.88;;;;;;;5.48;85.35;101245.38;5014943;28;20053;-52
2021/11/24 08:52:37;;;;;;;18.90;10.52;;;;;;;5.57;83.72;101239.09;5022963;28;20140;-53
2021/11/24 08:55:05;;;;;;;27.10;10.77;;;;;;;5.59;83.53;101232.94;5022061;28;20052;-52
2021/11/24 08:57:32;;;;;;;21.80;10.40;;;;;;;5.72;81.94;101240.66;5015446;28;20052;-53
2021/11/24 08:59:58;;;;;;;22.80;10.30;;;;;;;5.83;84.51;101241.38;5015164;28;20049;-52
2021/11/24 09:02:28;;;;;;;19.13;10.40;;;;;;;5.86;82.52;101241.34;5020090;28;20059;-52
2021/11/24 09:04:58;;;;;;;17.92;10.32;;;;;;;5.88;86.17;101229.94;5016593;28;20052;-52
2021/11/24 09:07:28;;;;;;;19.38;10.85;;;;;;;6.01;83.61;101225.38;5017313;28;20053;-57
2021/11/24 09:09:54;;;;;;;17.80;11.15;;;;;;;5.97;81.04;101221.94;5014342;28;20041;-52
2021/11/24 09:12:21;;;;;;;23.65;11.32;;;;;;;5.98;81.10;101215.75;5018721;28;20053;-54
2021/11/24 09:14:48;;;;;;;19.25;10.77;;;;;;;6.03;80.29;101217.47;5018864;28;20041;-53
2021/11/24 09:17:14;;;;;;;21.42;10.65;;;;;;;6.09;80.21;101213.00;5024104;28;20057;-52
2021/11/24 09:19:41;;;;;;;15.77;10.15;;;;;;;6.11;79.96;101215.59;5014435;28;20046;-51
2021/11/24 09:22:27;;;;;;;16.88;10.43;;;;;;;6.17;80.41;101212.84;5019985;28;20072;-52
2021/11/24 09:24:59;;;;;;;15.70;10.07;;;;;;;6.22;79.20;101216.28;5017363;28;20043;-53
2021/11/24 09:27:30;;;;;;;16.35;10.38;;;;;;;6.24;78.74;101211.88;5006224;28;20445;-53
2021/11/24 09:29:58;;;;;;;15.07;9.80;;;;;;;6.26;78.88;101212.72;5014690;28;20045;-53
2021/11/24 09:32:26;;;;;;;16.27;9.57;;;;;;;6.28;78.48;101205.69;5013926;28;20045;-55
2021/11/24 09:34:53;;;;;;;15.73;9.55;;;;;;;6.34;77.66;101206.44;5020029;28;20098;-54
2021/11/24 09:37:19;;;;;;;18.63;9.65;;;;;;;6.35;77.76;101196.78;5024235;28;20045;-53
2021/11/24 09:39:47;;;;;;;14.75;9.27;;;;;;;6.45;77.11;101205.41;5009056;28;20045;-53
2021/11/24 09:42:20;;;;;;;20.52;9.82;;;;;;;6.50;76.17;101199.16;5023438;28;20048;-52
2021/11/24 09:44:48;;;;;;;15.68;9.75;;;;;;;6.54;76.77;101195.56;5017642;28;20059;-52
2021/11/24 09:47:15;;;;;;;14.07;8.90;;;;;;;6.49;75.82;101171.09;5022160;28;20046;-55
2021/11/24 09:49:47;;;;;;;17.80;9.68;;;;;;;6.63;76.13;101184.88;5016907;28;20418;-53
2021/11/24 09:52:18;;;;;;;13.70;8.52;;;;;;;6.68;75.77;101182.16;5020402;28;20043;-52
2021/11/24 09:54:49;;;;;;;16.13;7.28;;;;;;;6.72;74.88;101177.72;5016587;28;20426;-53
2021/11/24 09:57:18;;;;;;;9.88;6.47;;;;;;;6.80;73.54;101168.75;5021197;28;20054;-53
2021/11/24 09:59:44;;;;;;;11.35;6.90;;;;;;;6.91;72.91;101173.84;5011231;28;20049;-53
2021/11/24 10:02:15;;;;;;;9.73;5.55;;;;;;;6.98;72.11;101170.16;5023881;28;20056;-52
2021/11/24 10:04:43;;;;;;;9.75;5.72;;;;;;;7.09;72.00;101164.69;5020867;28;20093;-52
2021/11/24 10:07:11;;;;;;;8.50;5.10;;;;;;;7.17;71.29;101168.91;5013976;28;20057;-54
2021/11/24 10:09:40;;;;;;;11.32;5.55;;;;;;;7.22;70.58;101155.66;5002947;28;20054;-51
2021/11/24 10:12:08;;;;;;;10.00;5.43;;;;;;;7.27;69.90;101146.72;5018270;28;20069;-54
2021/11/24 10:14:35;;;;;;;8.60;5.22;;;;;;;7.32;69.50;101152.78;5012523;28;20080;-52
2021/11/24 10:17:14;;;;;;;8.00;5.97;;;;;;;7.31;69.85;101147.53;5019943;28;20136;-52
2021/11/24 10:20:01;;;;;;;8.60;5.50;;;;;;;7.34;69.95;101136.94;5001639;28;20529;-52
2021/11/24 10:22:28;;;;;;;9.30;5.35;;;;;;;7.34;69.05;101122.00;5013469;28;20047;-51
2021/11/24 10:25:09;;;;;;;9.63;5.75;;;;;;;7.42;68.59;101136.75;5007221;28;20491;-52
2021/11/24 10:27:37;;;;;;;9.40;6.05;;;;;;;7.38;69.01;101122.81;5007305;28;20403;-53
2021/11/24 10:30:28;;;;;;;9.00;5.55;;;;;;;7.48;69.36;101118.19;5008473;28;21349;-52
2021/11/24 10:33:14;;;;;;;9.82;6.03;;;;;;;7.54;68.82;101116.28;5016028;28;20050;-52
2021/11/24 10:35:40;;;;;;;8.70;6.00;;;;;;;7.62;68.71;101110.81;5011474;28;20049;-51
2021/11/24 10:38:16;;;;;;;8.00;5.38;;;;;;;7.68;67.77;101106.28;5010077;28;20050;-57
2021/11/24 10:40:45;;;;;;;6.15;4.30;;;;;;;7.67;67.26;101103.69;5014547;28;20053;-51
2021/11/24 10:43:13;;;;;;;5.68;4.30;;;;;;;7.72;67.42;101097.38;5017309;28;20046;-53
2021/11/24 10:45:54;;;;;;;7.03;3.60;;;;;;;7.75;66.55;101085.91;5017503;28;20053;-53
2021/11/24 10:48:30;;;;;;;5.75;3.85;;;;;;;7.79;66.03;101079.66;5008149;28;20145;-58
2021/11/24 10:51:00;;;;;;;5.95;3.40;;;;;;;7.91;65.82;101074.06;5017948;28;20056;-54
2021/11/24 10:53:27;;;;;;;5.53;2.72;;;;;;;7.96;65.86;101074.81;5012520;28;20140;-53
2021/11/24 10:55:54;;;;;;;3.30;2.65;;;;;;;7.99;65.13;101074.75;5017746;28;20060;-54
2021/11/24 10:58:26;;;;;;;3.70;2.67;;;;;;;8.06;64.52;101070.16;5021177;28;20064;-53
2021/11/24 11:00:55;;;;;;;2.47;2.00;;;;;;;7.99;63.48;101072.13;5014535;28;20044;-53
2021/11/24 11:03:41;;;;;;;3.58;2.30;;;;;;;8.02;63.71;101063.25;5016078;28;20049;-53
2021/11/24 11:06:08;;;;;;;2.97;1.85;;;;;;;7.93;63.48;101063.47;5027878;28;20077;-52
2021/11/24 11:08:34;;;;;;;2.55;1.63;;;;;;;7.93;63.90;101045.88;5004281;28;20111;-52
2021/11/24 11:11:32;;;;;;;2.33;1.83;;;;;;;7.91;64.00;101049.47;5018919;28;20053;-54
2021/11/24 11:14:17;;;;;;;2.97;2.20;;;;;;;7.99;63.71;101048.38;5022884;28;20048;-54
2021/11/24 11:16:53;;;;;;;4.88;2.42;;;;;;;8.01;62.90;101036.03;4999268;28;20483;-52
2021/11/24 11:19:45;;;;;;;2.55;1.98;;;;;;;7.92;63.15;101030.97;5007842;28;20064;-53
2021/11/24 11:22:18;;;;;;;2.95;1.90;;;;;;;7.96;62.63;101021.22;5003167;28;20378;-55
2021/11/24 11:24:44;;;;;;;5.03;2.47;;;;;;;7.83;63.66;101020.66;5013449;28;20046;-53
2021/11/24 11:27:11;;;;;;;6.47;3.40;;;;;;;7.81;63.16;101013.69;5014462;28;20506;-53
2021/11/24 11:29:40;;;;;;;3.17;2.50;;;;;;;7.83;63.15;101018.03;5008710;28;20053;-53
2021/11/24 11:32:08;;;;;;;5.38;2.65;;;;;;;7.78;63.09;101012.00;5010375;28;20471;-54